sensor_id;sensor_type;location;lat;lon;timestamp;P1;durP1;ratioP1;P2;durP2;ratioP2
18376;SDS011;9315;52.624;13.544;2023-02-26T00:01:44;2.17;;;0.60;;
18376;SDS011;9315;52.624;13.544;2023-02-26T00:04:13;3.53;;;0.70;;
18376;SDS011;9315;52.624;13.544;2023-02-26T00:06:41;2.20;;;0.60;;
18376;SDS011;9315;52.624;13.544;2023-02-26T00:09:22;1.70;;;0.60;;
18376;SDS011;9315;52.624;13.544;2023-02-26T00:11:50;5.97;;;1.47;;
18376;SDS011;9315;52.624;13.544;2023-02-26T00:14:19;3.57;;;1.17;;
18376;SDS011;9315;52.624;13.544;2023-02-26T00:16:54;2.50;;;0.50;;
18376;SDS011;9315;52.624;13.544;2023-02-26T00:19:52;2.47;;;0.70;;
18376;SDS011;9315;52.624;13.544;2023-02-26T00:22:20;2.97;;;0.40;;
18376;SDS011;9315;52.624;13.544;2023-02-26T00:24:49;2.80;;;0.53;;
18376;SDS011;9315;52.624;13.544;2023-02-26T00:27:17;0.67;;;0.30;;
18376;SDS011;9315;52.624;13.544;2023-02-26T00:29:45;1.33;;;0.50;;
18376;SDS011;9315;52.624;13.544;2023-02-26T00:32:14;4.10;;;0.67;;
18376;SDS011;9315;52.624;13.544;2023-02-26T00:34:46;1.97;;;0.70;;
18376;SDS011;9315;52.624;13.544;2023-02-26T00:37:25;2.07;;;0.50;;
18376;SDS011;9315;52.624;13.544;2023-02-26T00:40:37;4.47;;;0.70;;
18376;SDS011;9315;52.624;13.544;2023-02-26T00:43:17;4.13;;;0.90;;
18376;SDS011;9315;52.624;13.544;2023-02-26T00:51:55;1.50;;;0.43;;
18376;SDS011;9315;52.624;13.544;2023-02-26T00:54:29;2.90;;;0.60;;
18376;SDS011;9315;52.624;13.544;2023-02-26T00:56:58;4.63;;;0.67;;
18376;SDS011;9315;52.624;13.544;2023-02-26T00:59:26;2.23;;;0.70;;
18376;SDS011;9315;52.624;13.544;2023-02-26T01:01:54;3.73;;;0.53;;
18376;SDS011;9315;52.624;13.544;2023-02-26T01:04:24;3.13;;;0.60;;
18376;SDS011;9315;52.624;13.544;2023-02-26T01:06:54;2.77;;;0.50;;
18376;SDS011;9315;52.624;13.544;2023-02-26T01:11:57;1.13;;;0.30;;
18376;SDS011;9315;52.624;13.544;2023-02-26T01:14:29;10.77;;;0.60;;
18376;SDS011;9315;52.624;13.544;2023-02-26T01:25:05;3.70;;;0.60;;
18376;SDS011;9315;52.624;13.544;2023-02-26T01:28:18;1.63;;;0.53;;
18376;SDS011;9315;52.624;13.544;2023-02-26T01:30:46;3.30;;;0.50;;
18376;SDS011;9315;52.624;13.544;2023-02-26T01:36:02;2.33;;;0.53;;
18376;SDS011;9315;52.624;13.544;2023-02-26T01:42:31;0.30;;;0.20;;
18376;SDS011;9315;52.624;13.544;2023-02-26T01:45:11;3.97;;;0.60;;
18376;SDS011;9315;52.624;13.544;2023-02-26T01:47:52;3.13;;;0.60;;
18376;SDS011;9315;52.624;13.544;2023-02-26T01:50:35;5.03;;;0.63;;
18376;SDS011;9315;52.624;13.544;2023-02-26T01:55:56;1.40;;;0.30;;
18376;SDS011;9315;52.624;13.544;2023-02-26T01:58:33;2.00;;;0.40;;
18376;SDS011;9315;52.624;13.544;2023-02-26T02:01:06;5.97;;;1.10;;
18376;SDS011;9315;52.624;13.544;2023-02-26T02:03:35;3.03;;;0.77;;
18376;SDS011;9315;52.624;13.544;2023-02-26T02:06:11;0.90;;;0.40;;
18376;SDS011;9315;52.624;13.544;2023-02-26T02:08:51;2.93;;;1.00;;
18376;SDS011;9315;52.624;13.544;2023-02-26T02:11:22;1.73;;;0.50;;
18376;SDS011;9315;52.624;13.544;2023-02-26T02:14:04;3.10;;;0.70;;
18376;SDS011;9315;52.624;13.544;2023-02-26T02:17:06;2.37;;;0.70;;
18376;SDS011;9315;52.624;13.544;2023-02-26T02:25:53;2.33;;;0.50;;
18376;SDS011;9315;52.624;13.544;2023-02-26T02:32:37;4.50;;;0.70;;
18376;SDS011;9315;52.624;13.544;2023-02-26T02:35:45;4.07;;;0.97;;
18376;SDS011;9315;52.624;13.544;2023-02-26T02:41:38;3.23;;;0.70;;
18376;SDS011;9315;52.624;13.544;2023-02-26T02:44:16;2.33;;;0.40;;
18376;SDS011;9315;52.624;13.544;2023-02-26T02:46:48;3.57;;;1.00;;
18376;SDS011;9315;52.624;13.544;2023-02-26T02:49:35;3.23;;;0.63;;
18376;SDS011;9315;52.624;13.544;2023-02-26T02:52:38;2.80;;;0.30;;
18376;SDS011;9315;52.624;13.544;2023-02-26T02:55:22;3.77;;;0.43;;
18376;SDS011;9315;52.624;13.544;2023-02-26T02:58:07;1.70;;;0.30;;
18376;SDS011;9315;52.624;13.544;2023-02-26T03:00:52;5.60;;;0.50;;
18376;SDS011;9315;52.624;13.544;2023-02-26T03:03:33;3.67;;;0.50;;
18376;SDS011;9315;52.624;13.544;2023-02-26T03:06:26;1.20;;;0.40;;
18376;SDS011;9315;52.624;13.544;2023-02-26T03:08:55;1.10;;;0.47;;
18376;SDS011;9315;52.624;13.544;2023-02-26T03:11:24;1.90;;;0.40;;
18376;SDS011;9315;52.624;13.544;2023-02-26T03:13:52;3.23;;;0.53;;
18376;SDS011;9315;52.624;13.544;2023-02-26T03:19:37;2.33;;;0.33;;
18376;SDS011;9315;52.624;13.544;2023-02-26T03:22:17;2.80;;;0.50;;
18376;SDS011;9315;52.624;13.544;2023-02-26T03:25:13;4.70;;;0.60;;
18376;SDS011;9315;52.624;13.544;2023-02-26T03:27:54;0.83;;;0.10;;
18376;SDS011;9315;52.624;13.544;2023-02-26T03:30:48;3.43;;;0.70;;
18376;SDS011;9315;52.624;13.544;2023-02-26T03:36:36;5.33;;;0.53;;
18376;SDS011;9315;52.624;13.544;2023-02-26T03:39:19;1.57;;;0.57;;
18376;SDS011;9315;52.624;13.544;2023-02-26T03:42:09;2.53;;;0.40;;
18376;SDS011;9315;52.624;13.544;2023-02-26T03:47:43;7.60;;;0.43;;
18376;SDS011;9315;52.624;13.544;2023-02-26T03:50:32;6.67;;;0.90;;
18376;SDS011;9315;52.624;13.544;2023-02-26T03:53:18;2.67;;;0.40;;
18376;SDS011;9315;52.624;13.544;2023-02-26T03:55:58;3.77;;;0.40;;
18376;SDS011;9315;52.624;13.544;2023-02-26T03:59:11;3.77;;;0.40;;
18376;SDS011;9315;52.624;13.544;2023-02-26T04:01:53;2.33;;;0.57;;
18376;SDS011;9315;52.624;13.544;2023-02-26T04:04:42;1.53;;;0.47;;
18376;SDS011;9315;52.624;13.544;2023-02-26T04:07:37;3.97;;;0.60;;
18376;SDS011;9315;52.624;13.544;2023-02-26T04:10:07;3.43;;;0.33;;
18376;SDS011;9315;52.624;13.544;2023-02-26T04:12:37;0.70;;;0.30;;
18376;SDS011;9315;52.624;13.544;2023-02-26T04:15:08;6.57;;;0.57;;
18376;SDS011;9315;52.624;13.544;2023-02-26T04:17:37;3.17;;;0.60;;
18376;SDS011;9315;52.624;13.544;2023-02-26T04:20:09;2.93;;;0.40;;
18376;SDS011;9315;52.624;13.544;2023-02-26T04:22:38;2.53;;;0.40;;
18376;SDS011;9315;52.624;13.544;2023-02-26T04:25:06;4.30;;;0.50;;
18376;SDS011;9315;52.624;13.544;2023-02-26T04:27:34;3.20;;;0.50;;
18376;SDS011;9315;52.624;13.544;2023-02-26T04:30:22;2.03;;;0.40;;
18376;SDS011;9315;52.624;13.544;2023-02-26T04:32:50;1.03;;;0.37;;
18376;SDS011;9315;52.624;13.544;2023-02-26T04:35:18;3.13;;;0.50;;
18376;SDS011;9315;52.624;13.544;2023-02-26T04:37:46;3.90;;;0.50;;
18376;SDS011;9315;52.624;13.544;2023-02-26T04:40:14;5.87;;;0.67;;
18376;SDS011;9315;52.624;13.544;2023-02-26T04:42:42;2.43;;;0.53;;
18376;SDS011;9315;52.624;13.544;2023-02-26T04:45:13;3.93;;;0.60;;
18376;SDS011;9315;52.624;13.544;2023-02-26T04:47:41;4.73;;;0.60;;
18376;SDS011;9315;52.624;13.544;2023-02-26T04:50:10;2.07;;;0.30;;
18376;SDS011;9315;52.624;13.544;2023-02-26T04:52:38;2.10;;;0.30;;
18376;SDS011;9315;52.624;13.544;2023-02-26T04:55:06;4.87;;;0.53;;
18376;SDS011;9315;52.624;13.544;2023-02-26T04:57:34;1.73;;;0.50;;
18376;SDS011;9315;52.624;13.544;2023-02-26T05:00:03;1.70;;;0.40;;
18376;SDS011;9315;52.624;13.544;2023-02-26T05:02:33;1.70;;;0.30;;
18376;SDS011;9315;52.624;13.544;2023-02-26T05:05:01;4.27;;;0.57;;
18376;SDS011;9315;52.624;13.544;2023-02-26T05:07:33;3.73;;;0.60;;
18376;SDS011;9315;52.624;13.544;2023-02-26T05:10:03;3.90;;;0.63;;
18376;SDS011;9315;52.624;13.544;2023-02-26T05:12:34;3.90;;;0.43;;
18376;SDS011;9315;52.624;13.544;2023-02-26T05:15:02;3.50;;;0.33;;
18376;SDS011;9315;52.624;13.544;2023-02-26T05:17:32;4.17;;;0.40;;
18376;SDS011;9315;52.624;13.544;2023-02-26T05:20:01;4.53;;;0.67;;
18376;SDS011;9315;52.624;13.544;2023-02-26T05:22:31;5.10;;;0.53;;
18376;SDS011;9315;52.624;13.544;2023-02-26T05:24:59;5.30;;;0.60;;
18376;SDS011;9315;52.624;13.544;2023-02-26T05:27:27;3.20;;;0.30;;
18376;SDS011;9315;52.624;13.544;2023-02-26T05:29:55;4.00;;;0.40;;
18376;SDS011;9315;52.624;13.544;2023-02-26T05:32:23;0.83;;;0.30;;
18376;SDS011;9315;52.624;13.544;2023-02-26T05:35:00;3.90;;;0.60;;
18376;SDS011;9315;52.624;13.544;2023-02-26T05:37:28;5.47;;;0.50;;
18376;SDS011;9315;52.624;13.544;2023-02-26T05:39:59;5.40;;;0.40;;
18376;SDS011;9315;52.624;13.544;2023-02-26T05:42:27;3.13;;;0.50;;
18376;SDS011;9315;52.624;13.544;2023-02-26T05:44:55;3.13;;;0.60;;
18376;SDS011;9315;52.624;13.544;2023-02-26T05:47:23;2.23;;;0.67;;
18376;SDS011;9315;52.624;13.544;2023-02-26T05:49:54;1.80;;;0.40;;
18376;SDS011;9315;52.624;13.544;2023-02-26T05:52:22;2.10;;;0.40;;
18376;SDS011;9315;52.624;13.544;2023-02-26T05:54:50;2.60;;;0.40;;
18376;SDS011;9315;52.624;13.544;2023-02-26T05:57:22;1.53;;;0.27;;
18376;SDS011;9315;52.624;13.544;2023-02-26T05:59:50;2.83;;;0.40;;
18376;SDS011;9315;52.624;13.544;2023-02-26T06:02:18;2.23;;;0.50;;
18376;SDS011;9315;52.624;13.544;2023-02-26T06:04:46;2.17;;;0.67;;
18376;SDS011;9315;52.624;13.544;2023-02-26T06:07:15;2.13;;;0.47;;
18376;SDS011;9315;52.624;13.544;2023-02-26T06:09:44;1.73;;;0.50;;
18376;SDS011;9315;52.624;13.544;2023-02-26T06:12:18;1.03;;;0.23;;
18376;SDS011;9315;52.624;13.544;2023-02-26T06:14:46;1.90;;;0.40;;
18376;SDS011;9315;52.624;13.544;2023-02-26T06:17:14;1.73;;;0.40;;
18376;SDS011;9315;52.624;13.544;2023-02-26T06:19:42;1.70;;;0.50;;
18376;SDS011;9315;52.624;13.544;2023-02-26T06:22:11;1.23;;;0.20;;
18376;SDS011;9315;52.624;13.544;2023-02-26T06:24:39;4.83;;;0.53;;
18376;SDS011;9315;52.624;13.544;2023-02-26T06:27:07;3.03;;;0.60;;
18376;SDS011;9315;52.624;13.544;2023-02-26T06:29:39;3.70;;;0.30;;
18376;SDS011;9315;52.624;13.544;2023-02-26T06:32:07;3.50;;;0.57;;
18376;SDS011;9315;52.624;13.544;2023-02-26T06:34:35;3.97;;;0.60;;
18376;SDS011;9315;52.624;13.544;2023-02-26T06:37:16;2.67;;;0.50;;
18376;SDS011;9315;52.624;13.544;2023-02-26T06:39:44;3.23;;;0.70;;
18376;SDS011;9315;52.624;13.544;2023-02-26T06:42:12;2.03;;;0.60;;
18376;SDS011;9315;52.624;13.544;2023-02-26T06:44:40;5.60;;;0.60;;
18376;SDS011;9315;52.624;13.544;2023-02-26T06:47:08;3.73;;;0.73;;
18376;SDS011;9315;52.624;13.544;2023-02-26T06:49:36;4.00;;;0.87;;
18376;SDS011;9315;52.624;13.544;2023-02-26T06:52:04;2.27;;;0.60;;
18376;SDS011;9315;52.624;13.544;2023-02-26T06:54:32;2.50;;;0.50;;
18376;SDS011;9315;52.624;13.544;2023-02-26T06:57:00;2.07;;;0.40;;
18376;SDS011;9315;52.624;13.544;2023-02-26T06:59:29;2.03;;;0.40;;
18376;SDS011;9315;52.624;13.544;2023-02-26T07:01:57;2.13;;;0.33;;
18376;SDS011;9315;52.624;13.544;2023-02-26T07:04:25;4.27;;;0.70;;
18376;SDS011;9315;52.624;13.544;2023-02-26T07:06:54;2.57;;;0.50;;
18376;SDS011;9315;52.624;13.544;2023-02-26T07:09:22;5.57;;;0.40;;
18376;SDS011;9315;52.624;13.544;2023-02-26T07:11:50;2.67;;;0.50;;
18376;SDS011;9315;52.624;13.544;2023-02-26T07:14:35;3.70;;;1.17;;
18376;SDS011;9315;52.624;13.544;2023-02-26T07:17:03;5.93;;;1.40;;
18376;SDS011;9315;52.624;13.544;2023-02-26T07:19:31;5.03;;;1.77;;
18376;SDS011;9315;52.624;13.544;2023-02-26T07:21:59;6.70;;;1.90;;
18376;SDS011;9315;52.624;13.544;2023-02-26T07:24:28;5.00;;;1.20;;
18376;SDS011;9315;52.624;13.544;2023-02-26T07:26:55;6.40;;;2.43;;
18376;SDS011;9315;52.624;13.544;2023-02-26T07:29:23;2.43;;;0.80;;
18376;SDS011;9315;52.624;13.544;2023-02-26T07:31:51;3.73;;;0.50;;
18376;SDS011;9315;52.624;13.544;2023-02-26T07:34:20;2.27;;;0.63;;
18376;SDS011;9315;52.624;13.544;2023-02-26T07:36:48;1.23;;;0.37;;
18376;SDS011;9315;52.624;13.544;2023-02-26T07:39:19;2.10;;;0.60;;
18376;SDS011;9315;52.624;13.544;2023-02-26T07:41:47;5.17;;;0.67;;
18376;SDS011;9315;52.624;13.544;2023-02-26T07:44:15;3.67;;;0.33;;
18376;SDS011;9315;52.624;13.544;2023-02-26T07:46:43;2.67;;;0.40;;
18376;SDS011;9315;52.624;13.544;2023-02-26T07:49:11;4.13;;;0.63;;
18376;SDS011;9315;52.624;13.544;2023-02-26T07:51:39;3.90;;;0.67;;
18376;SDS011;9315;52.624;13.544;2023-02-26T07:54:12;1.90;;;0.47;;
18376;SDS011;9315;52.624;13.544;2023-02-26T07:56:41;2.60;;;0.50;;
18376;SDS011;9315;52.624;13.544;2023-02-26T07:59:14;2.53;;;0.53;;
18376;SDS011;9315;52.624;13.544;2023-02-26T08:01:42;3.97;;;0.30;;
18376;SDS011;9315;52.624;13.544;2023-02-26T08:04:10;1.70;;;0.40;;
18376;SDS011;9315;52.624;13.544;2023-02-26T08:06:38;0.30;;;0.30;;
18376;SDS011;9315;52.624;13.544;2023-02-26T08:09:08;1.37;;;0.40;;
18376;SDS011;9315;52.624;13.544;2023-02-26T08:11:39;1.33;;;0.50;;
18376;SDS011;9315;52.624;13.544;2023-02-26T08:14:11;1.33;;;0.30;;
18376;SDS011;9315;52.624;13.544;2023-02-26T08:16:39;2.10;;;0.37;;
18376;SDS011;9315;52.624;13.544;2023-02-26T08:19:07;1.23;;;0.20;;
18376;SDS011;9315;52.624;13.544;2023-02-26T08:21:41;1.63;;;0.50;;
18376;SDS011;9315;52.624;13.544;2023-02-26T08:24:10;4.33;;;0.67;;
18376;SDS011;9315;52.624;13.544;2023-02-26T08:26:45;4.57;;;1.00;;
18376;SDS011;9315;52.624;13.544;2023-02-26T08:29:15;2.07;;;0.40;;
18376;SDS011;9315;52.624;13.544;2023-02-26T08:31:44;0.63;;;0.20;;
18376;SDS011;9315;52.624;13.544;2023-02-26T08:34:13;1.17;;;0.23;;
18376;SDS011;9315;52.624;13.544;2023-02-26T08:36:41;2.47;;;0.50;;
18376;SDS011;9315;52.624;13.544;2023-02-26T08:39:09;1.97;;;0.80;;
18376;SDS011;9315;52.624;13.544;2023-02-26T08:41:40;2.57;;;0.40;;
18376;SDS011;9315;52.624;13.544;2023-02-26T08:44:08;3.67;;;0.50;;
18376;SDS011;9315;52.624;13.544;2023-02-26T08:46:36;1.60;;;0.40;;
18376;SDS011;9315;52.624;13.544;2023-02-26T08:49:04;2.50;;;0.77;;
18376;SDS011;9315;52.624;13.544;2023-02-26T08:51:33;1.50;;;0.60;;
18376;SDS011;9315;52.624;13.544;2023-02-26T08:54:03;2.83;;;0.60;;
18376;SDS011;9315;52.624;13.544;2023-02-26T08:56:31;6.93;;;0.70;;
18376;SDS011;9315;52.624;13.544;2023-02-26T08:58:59;9.50;;;4.23;;
18376;SDS011;9315;52.624;13.544;2023-02-26T09:01:31;3.53;;;0.90;;
18376;SDS011;9315;52.624;13.544;2023-02-26T09:03:59;9.80;;;4.40;;
18376;SDS011;9315;52.624;13.544;2023-02-26T09:06:27;8.90;;;3.20;;
18376;SDS011;9315;52.624;13.544;2023-02-26T09:08:56;3.07;;;1.00;;
18376;SDS011;9315;52.624;13.544;2023-02-26T09:11:24;5.73;;;2.43;;
18376;SDS011;9315;52.624;13.544;2023-02-26T09:13:52;2.57;;;0.37;;
18376;SDS011;9315;52.624;13.544;2023-02-26T09:16:55;3.77;;;0.67;;
18376;SDS011;9315;52.624;13.544;2023-02-26T09:19:37;2.60;;;0.40;;
18376;SDS011;9315;52.624;13.544;2023-02-26T09:22:05;0.70;;;0.20;;
18376;SDS011;9315;52.624;13.544;2023-02-26T09:24:33;2.43;;;0.60;;
18376;SDS011;9315;52.624;13.544;2023-02-26T09:27:01;2.30;;;0.20;;
18376;SDS011;9315;52.624;13.544;2023-02-26T09:29:33;2.10;;;0.33;;
18376;SDS011;9315;52.624;13.544;2023-02-26T09:32:01;1.13;;;0.73;;
18376;SDS011;9315;52.624;13.544;2023-02-26T09:34:45;2.90;;;0.60;;
18376;SDS011;9315;52.624;13.544;2023-02-26T09:37:13;4.20;;;0.83;;
18376;SDS011;9315;52.624;13.544;2023-02-26T09:39:41;5.17;;;0.60;;
18376;SDS011;9315;52.624;13.544;2023-02-26T09:44:45;2.13;;;0.40;;
18376;SDS011;9315;52.624;13.544;2023-02-26T09:50:19;5.80;;;0.60;;
18376;SDS011;9315;52.624;13.544;2023-02-26T09:56:05;1.37;;;0.20;;
18376;SDS011;9315;52.624;13.544;2023-02-26T09:58:44;4.63;;;0.40;;
18376;SDS011;9315;52.624;13.544;2023-02-26T10:04:27;2.43;;;0.40;;
18376;SDS011;9315;52.624;13.544;2023-02-26T10:08:02;0.40;;;0.20;;
18376;SDS011;9315;52.624;13.544;2023-02-26T10:14:09;3.67;;;0.50;;
18376;SDS011;9315;52.624;13.544;2023-02-26T10:23:11;0.87;;;0.40;;
18376;SDS011;9315;52.624;13.544;2023-02-26T10:32:32;2.97;;;0.40;;
18376;SDS011;9315;52.624;13.544;2023-02-26T10:35:20;1.77;;;0.40;;
18376;SDS011;9315;52.624;13.544;2023-02-26T10:37:58;4.37;;;0.50;;
18376;SDS011;9315;52.624;13.544;2023-02-26T10:40:49;2.50;;;0.40;;
18376;SDS011;9315;52.624;13.544;2023-02-26T10:43:53;2.60;;;0.30;;
18376;SDS011;9315;52.624;13.544;2023-02-26T10:50:14;0.83;;;0.30;;
18376;SDS011;9315;52.624;13.544;2023-02-26T10:52:46;1.93;;;0.30;;
18376;SDS011;9315;52.624;13.544;2023-02-26T10:58:24;2.63;;;0.43;;
18376;SDS011;9315;52.624;13.544;2023-02-26T11:00:53;2.07;;;0.47;;
18376;SDS011;9315;52.624;13.544;2023-02-26T11:06:06;3.50;;;0.83;;
18376;SDS011;9315;52.624;13.544;2023-02-26T11:08:38;1.07;;;0.40;;
18376;SDS011;9315;52.624;13.544;2023-02-26T11:14:41;1.53;;;0.30;;
18376;SDS011;9315;52.624;13.544;2023-02-26T11:17:17;1.80;;;0.40;;
18376;SDS011;9315;52.624;13.544;2023-02-26T11:20:01;6.63;;;0.67;;
18376;SDS011;9315;52.624;13.544;2023-02-26T11:22:57;3.43;;;0.50;;
18376;SDS011;9315;52.624;13.544;2023-02-26T11:25:28;1.97;;;0.63;;
18376;SDS011;9315;52.624;13.544;2023-02-26T11:28:06;4.03;;;0.83;;
18376;SDS011;9315;52.624;13.544;2023-02-26T11:31:09;2.53;;;0.40;;
18376;SDS011;9315;52.624;13.544;2023-02-26T11:33:48;2.20;;;0.70;;
18376;SDS011;9315;52.624;13.544;2023-02-26T11:36:30;0.40;;;0.20;;
18376;SDS011;9315;52.624;13.544;2023-02-26T11:39:01;6.70;;;1.83;;
18376;SDS011;9315;52.624;13.544;2023-02-26T11:42:15;6.37;;;2.77;;
18376;SDS011;9315;52.624;13.544;2023-02-26T11:44:44;4.80;;;1.00;;
18376;SDS011;9315;52.624;13.544;2023-02-26T11:47:15;11.10;;;4.93;;
18376;SDS011;9315;52.624;13.544;2023-02-26T11:49:55;5.50;;;1.93;;
18376;SDS011;9315;52.624;13.544;2023-02-26T11:52:33;2.20;;;0.60;;
18376;SDS011;9315;52.624;13.544;2023-02-26T11:58:00;3.90;;;0.80;;
18376;SDS011;9315;52.624;13.544;2023-02-26T12:00:32;3.00;;;0.40;;
18376;SDS011;9315;52.624;13.544;2023-02-26T12:03:23;0.90;;;0.30;;
18376;SDS011;9315;52.624;13.544;2023-02-26T12:05:57;1.07;;;0.23;;
18376;SDS011;9315;52.624;13.544;2023-02-26T12:08:31;2.17;;;0.30;;
18376;SDS011;9315;52.624;13.544;2023-02-26T12:11:23;1.27;;;0.50;;
18376;SDS011;9315;52.624;13.544;2023-02-26T12:27:16;3.47;;;0.40;;
18376;SDS011;9315;52.624;13.544;2023-02-26T12:36:05;1.83;;;0.37;;
18376;SDS011;9315;52.624;13.544;2023-02-26T12:39:25;2.80;;;0.50;;
18376;SDS011;9315;52.624;13.544;2023-02-26T12:50:57;1.73;;;0.40;;
18376;SDS011;9315;52.624;13.544;2023-02-26T12:57:39;1.73;;;0.40;;
18376;SDS011;9315;52.624;13.544;2023-02-26T13:14:34;2.47;;;0.40;;
18376;SDS011;9315;52.624;13.544;2023-02-26T13:17:59;4.17;;;0.70;;
18376;SDS011;9315;52.624;13.544;2023-02-26T13:20:45;2.60;;;0.30;;
18376;SDS011;9315;52.624;13.544;2023-02-26T13:23:36;2.03;;;0.47;;
18376;SDS011;9315;52.624;13.544;2023-02-26T13:26:19;3.20;;;0.37;;
18376;SDS011;9315;52.624;13.544;2023-02-26T13:28:52;2.03;;;0.30;;
18376;SDS011;9315;52.624;13.544;2023-02-26T13:31:46;2.80;;;0.40;;
18376;SDS011;9315;52.624;13.544;2023-02-26T13:34:35;1.13;;;0.50;;
18376;SDS011;9315;52.624;13.544;2023-02-26T13:37:25;2.37;;;0.60;;
18376;SDS011;9315;52.624;13.544;2023-02-26T13:59:53;2.10;;;0.57;;
18376;SDS011;9315;52.624;13.544;2023-02-26T14:02:49;1.33;;;0.30;;
18376;SDS011;9315;52.624;13.544;2023-02-26T14:05:54;2.13;;;0.53;;
18376;SDS011;9315;52.624;13.544;2023-02-26T14:08:50;4.20;;;0.50;;
18376;SDS011;9315;52.624;13.544;2023-02-26T14:16:53;3.40;;;1.20;;
18376;SDS011;9315;52.624;13.544;2023-02-26T14:19:37;2.07;;;0.50;;
18376;SDS011;9315;52.624;13.544;2023-02-26T14:27:48;32.17;;;15.27;;
18376;SDS011;9315;52.624;13.544;2023-02-26T14:30:18;5.77;;;2.37;;
18376;SDS011;9315;52.624;13.544;2023-02-26T14:35:32;3.13;;;1.50;;
18376;SDS011;9315;52.624;13.544;2023-02-26T14:38:17;1.93;;;0.90;;
18376;SDS011;9315;52.624;13.544;2023-02-26T14:40:55;2.47;;;0.40;;
18376;SDS011;9315;52.624;13.544;2023-02-26T14:46:09;1.13;;;0.30;;
18376;SDS011;9315;52.624;13.544;2023-02-26T14:48:38;1.50;;;0.30;;
18376;SDS011;9315;52.624;13.544;2023-02-26T14:57:03;3.67;;;0.50;;
18376;SDS011;9315;52.624;13.544;2023-02-26T15:05:31;2.23;;;0.33;;
18376;SDS011;9315;52.624;13.544;2023-02-26T15:08:43;3.90;;;0.60;;
18376;SDS011;9315;52.624;13.544;2023-02-26T15:24:07;1.00;;;0.60;;
18376;SDS011;9315;52.624;13.544;2023-02-26T15:26:45;3.77;;;0.80;;
18376;SDS011;9315;52.624;13.544;2023-02-26T15:29:20;11.73;;;1.40;;
18376;SDS011;9315;52.624;13.544;2023-02-26T15:32:01;1.23;;;0.40;;
18376;SDS011;9315;52.624;13.544;2023-02-26T15:35:09;2.57;;;0.40;;
18376;SDS011;9315;52.624;13.544;2023-02-26T15:37:52;4.03;;;1.30;;
18376;SDS011;9315;52.624;13.544;2023-02-26T15:40:26;11.40;;;2.03;;
18376;SDS011;9315;52.624;13.544;2023-02-26T15:43:04;6.97;;;2.30;;
18376;SDS011;9315;52.624;13.544;2023-02-26T15:45:53;5.87;;;2.40;;
18376;SDS011;9315;52.624;13.544;2023-02-26T15:48:35;5.37;;;2.67;;
18376;SDS011;9315;52.624;13.544;2023-02-26T15:51:10;5.83;;;1.20;;
18376;SDS011;9315;52.624;13.544;2023-02-26T15:53:44;12.37;;;3.47;;
18376;SDS011;9315;52.624;13.544;2023-02-26T15:56:20;7.37;;;2.23;;
18376;SDS011;9315;52.624;13.544;2023-02-26T15:59:01;3.90;;;0.90;;
18376;SDS011;9315;52.624;13.544;2023-02-26T16:01:44;6.90;;;2.00;;
18376;SDS011;9315;52.624;13.544;2023-02-26T16:04:17;5.87;;;1.13;;
18376;SDS011;9315;52.624;13.544;2023-02-26T16:06:48;6.67;;;2.40;;
18376;SDS011;9315;52.624;13.544;2023-02-26T16:09:27;5.57;;;1.80;;
18376;SDS011;9315;52.624;13.544;2023-02-26T16:12:03;7.23;;;2.80;;
18376;SDS011;9315;52.624;13.544;2023-02-26T16:14:49;3.90;;;1.70;;
18376;SDS011;9315;52.624;13.544;2023-02-26T16:17:34;4.87;;;1.67;;
18376;SDS011;9315;52.624;13.544;2023-02-26T16:20:13;4.93;;;2.20;;
18376;SDS011;9315;52.624;13.544;2023-02-26T16:22:47;6.90;;;1.73;;
18376;SDS011;9315;52.624;13.544;2023-02-26T16:25:39;2.50;;;1.00;;
18376;SDS011;9315;52.624;13.544;2023-02-26T16:28:22;3.20;;;1.00;;
18376;SDS011;9315;52.624;13.544;2023-02-26T16:31:03;4.67;;;0.90;;
18376;SDS011;9315;52.624;13.544;2023-02-26T16:33:35;3.43;;;1.17;;
18376;SDS011;9315;52.624;13.544;2023-02-26T16:36:10;5.73;;;1.40;;
18376;SDS011;9315;52.624;13.544;2023-02-26T16:38:48;2.73;;;1.13;;
18376;SDS011;9315;52.624;13.544;2023-02-26T16:41:45;2.60;;;1.20;;
18376;SDS011;9315;52.624;13.544;2023-02-26T16:46:57;14.27;;;10.03;;
18376;SDS011;9315;52.624;13.544;2023-02-26T16:49:31;12.77;;;8.60;;
18376;SDS011;9315;52.624;13.544;2023-02-26T16:52:02;6.07;;;4.57;;
18376;SDS011;9315;52.624;13.544;2023-02-26T16:54:39;15.67;;;8.00;;
18376;SDS011;9315;52.624;13.544;2023-02-26T16:57:17;91.40;;;37.30;;
18376;SDS011;9315;52.624;13.544;2023-02-26T16:59:55;54.17;;;24.33;;
18376;SDS011;9315;52.624;13.544;2023-02-26T17:02:32;19.60;;;9.70;;
18376;SDS011;9315;52.624;13.544;2023-02-26T17:05:38;29.03;;;15.87;;
18376;SDS011;9315;52.624;13.544;2023-02-26T17:08:06;19.93;;;8.67;;
18376;SDS011;9315;52.624;13.544;2023-02-26T17:10:50;21.30;;;9.30;;
18376;SDS011;9315;52.624;13.544;2023-02-26T17:13:29;24.97;;;9.53;;
18376;SDS011;9315;52.624;13.544;2023-02-26T17:16:00;19.50;;;8.43;;
18376;SDS011;9315;52.624;13.544;2023-02-26T17:18:36;17.40;;;7.60;;
18376;SDS011;9315;52.624;13.544;2023-02-26T17:21:04;18.43;;;6.20;;
18376;SDS011;9315;52.624;13.544;2023-02-26T17:23:35;20.17;;;4.83;;
18376;SDS011;9315;52.624;13.544;2023-02-26T17:26:05;12.67;;;3.90;;
18376;SDS011;9315;52.624;13.544;2023-02-26T17:28:35;15.33;;;3.77;;
18376;SDS011;9315;52.624;13.544;2023-02-26T17:31:07;9.33;;;3.47;;
18376;SDS011;9315;52.624;13.544;2023-02-26T17:33:39;8.10;;;3.60;;
18376;SDS011;9315;52.624;13.544;2023-02-26T17:36:14;10.47;;;4.67;;
18376;SDS011;9315;52.624;13.544;2023-02-26T17:38:46;7.60;;;3.20;;
18376;SDS011;9315;52.624;13.544;2023-02-26T17:41:16;9.10;;;3.57;;
18376;SDS011;9315;52.624;13.544;2023-02-26T17:43:44;9.97;;;2.73;;
18376;SDS011;9315;52.624;13.544;2023-02-26T17:46:12;4.33;;;1.80;;
18376;SDS011;9315;52.624;13.544;2023-02-26T17:48:40;1.77;;;1.07;;
18376;SDS011;9315;52.624;13.544;2023-02-26T17:51:08;6.10;;;1.50;;
18376;SDS011;9315;52.624;13.544;2023-02-26T17:53:40;7.77;;;1.97;;
18376;SDS011;9315;52.624;13.544;2023-02-26T17:56:10;7.07;;;1.70;;
18376;SDS011;9315;52.624;13.544;2023-02-26T17:58:57;6.07;;;2.07;;
18376;SDS011;9315;52.624;13.544;2023-02-26T18:01:27;8.00;;;3.10;;
18376;SDS011;9315;52.624;13.544;2023-02-26T18:03:56;8.13;;;2.40;;
18376;SDS011;9315;52.624;13.544;2023-02-26T18:06:26;7.47;;;2.00;;
18376;SDS011;9315;52.624;13.544;2023-02-26T18:08:58;9.83;;;3.30;;
18376;SDS011;9315;52.624;13.544;2023-02-26T18:11:27;5.97;;;2.93;;
18376;SDS011;9315;52.624;13.544;2023-02-26T18:13:55;9.17;;;5.00;;
18376;SDS011;9315;52.624;13.544;2023-02-26T18:16:27;6.20;;;3.80;;
18376;SDS011;9315;52.624;13.544;2023-02-26T18:19:05;4.33;;;1.70;;
18376;SDS011;9315;52.624;13.544;2023-02-26T18:21:34;8.50;;;3.07;;
18376;SDS011;9315;52.624;13.544;2023-02-26T18:24:02;7.37;;;2.53;;
18376;SDS011;9315;52.624;13.544;2023-02-26T18:26:30;6.03;;;1.90;;
18376;SDS011;9315;52.624;13.544;2023-02-26T18:29:02;3.00;;;1.83;;
18376;SDS011;9315;52.624;13.544;2023-02-26T18:31:30;4.43;;;1.70;;
18376;SDS011;9315;52.624;13.544;2023-02-26T18:34:02;4.63;;;2.50;;
18376;SDS011;9315;52.624;13.544;2023-02-26T18:36:31;8.17;;;2.27;;
18376;SDS011;9315;52.624;13.544;2023-02-26T18:39:05;4.37;;;2.40;;
18376;SDS011;9315;52.624;13.544;2023-02-26T18:41:38;4.90;;;2.40;;
18376;SDS011;9315;52.624;13.544;2023-02-26T18:44:06;5.27;;;2.70;;
18376;SDS011;9315;52.624;13.544;2023-02-26T18:46:34;6.23;;;2.63;;
18376;SDS011;9315;52.624;13.544;2023-02-26T18:49:07;5.77;;;2.40;;
18376;SDS011;9315;52.624;13.544;2023-02-26T18:51:47;5.43;;;2.13;;
18376;SDS011;9315;52.624;13.544;2023-02-26T18:54:15;4.20;;;1.83;;
18376;SDS011;9315;52.624;13.544;2023-02-26T18:56:43;5.50;;;1.80;;
18376;SDS011;9315;52.624;13.544;2023-02-26T18:59:12;10.00;;;2.30;;